createdAt,value
2019-03-24T00:00:31.307Z,58.53
2019-03-24T00:02:59.162Z,58.80
2019-03-24T00:05:26.891Z,55.63
2019-03-24T00:07:56.675Z,58.93
2019-03-24T00:10:23.994Z,68.50
2019-03-24T00:12:52.312Z,49.70
2019-03-24T00:15:26.073Z,55.33
2019-03-24T00:17:49.185Z,52.63
2019-03-24T00:20:17.051Z,59.30
2019-03-24T00:22:44.846Z,64.00
2019-03-24T00:25:12.544Z,52.73
2019-03-24T00:27:40.835Z,51.53
2019-03-24T00:30:08.800Z,53.83
2019-03-24T00:32:36.407Z,60.53
2019-03-24T00:35:04.705Z,57.13
2019-03-24T00:37:32.469Z,76.07
2019-03-24T00:40:01.902Z,59.10
2019-03-24T00:42:29.784Z,57.87
2019-03-24T00:44:57.768Z,61.83
2019-03-24T00:47:25.570Z,59.97
2019-03-24T00:49:53.678Z,64.03
2019-03-24T00:52:21.539Z,56.53
2019-03-24T00:54:49.524Z,57.80
2019-03-24T00:57:17.177Z,55.30
2019-03-24T00:59:45.173Z,55.93
2019-03-24T01:02:12.885Z,67.07
2019-03-24T01:04:40.655Z,67.33
2019-03-24T01:07:08.316Z,59.57
2019-03-24T01:09:35.978Z,66.50
2019-03-24T01:12:03.555Z,60.40
2019-03-24T01:14:32.021Z,54.77
2019-03-24T01:17:00.017Z,63.30
2019-03-24T01:19:27.929Z,61.13
2019-03-24T01:21:55.493Z,63.33
2019-03-24T01:24:23.057Z,78.23
2019-03-24T01:26:50.794Z,70.57
2019-03-24T01:29:18.674Z,63.57
2019-03-24T01:31:46.330Z,69.50
2019-03-24T01:34:13.946Z,66.17
2019-03-24T01:36:41.805Z,75.90
2019-03-24T01:39:09.383Z,74.40
2019-03-24T01:41:36.751Z,77.67
2019-03-24T01:44:04.679Z,74.27
2019-03-24T01:46:32.224Z,79.30
2019-03-24T01:48:59.909Z,66.60
2019-03-24T01:51:27.860Z,72.90
2019-03-24T01:53:55.623Z,78.07
2019-03-24T01:56:23.508Z,72.53
2019-03-24T01:58:51.108Z,74.70
2019-03-24T02:01:18.709Z,67.00
2019-03-24T02:03:46.339Z,85.80
2019-03-24T02:06:14.148Z,73.43
2019-03-24T02:08:42.167Z,76.20
2019-03-24T02:11:10.556Z,75.93
2019-03-24T02:13:38.072Z,83.70
2019-03-24T02:16:09.561Z,78.07
2019-03-24T02:18:34.772Z,71.53
2019-03-24T02:21:02.423Z,66.33
2019-03-24T02:23:30.002Z,86.17
2019-03-24T02:25:57.738Z,87.77
2019-03-24T02:28:25.350Z,97.87
2019-03-24T02:30:52.983Z,82.80
2019-03-24T02:33:21.022Z,65.93
2019-03-24T02:35:49.170Z,82.50
2019-03-24T02:38:16.878Z,78.27
2019-03-24T02:40:44.173Z,93.80
2019-03-24T02:43:11.442Z,78.63
2019-03-24T02:45:38.962Z,87.07
2019-03-24T02:48:06.249Z,76.97
2019-03-24T02:50:33.549Z,80.70
2019-03-24T02:53:01.492Z,83.60
2019-03-24T02:55:29.100Z,85.67
2019-03-24T02:57:56.359Z,85.50
2019-03-24T03:00:23.614Z,79.30
2019-03-24T03:02:50.890Z,80.97
2019-03-24T03:05:18.146Z,78.53
2019-03-24T03:07:45.678Z,66.90
2019-03-24T03:10:13.403Z,66.57
2019-03-24T03:12:40.686Z,78.77
2019-03-24T03:15:08.531Z,72.90
2019-03-24T03:17:35.786Z,71.73
2019-03-24T03:20:04.239Z,74.27
2019-03-24T03:22:31.483Z,81.80
2019-03-24T03:24:58.785Z,75.67
2019-03-24T03:27:26.093Z,84.73
2019-03-24T03:29:53.625Z,85.67
2019-03-24T03:32:20.925Z,79.40
2019-03-24T03:34:48.244Z,74.13
2019-03-24T03:37:15.553Z,76.00
2019-03-24T03:39:42.796Z,82.50
2019-03-24T03:42:10.162Z,81.80
2019-03-24T03:44:37.500Z,81.03
2019-03-24T03:47:04.742Z,78.33
2019-03-24T03:49:31.998Z,85.00
2019-03-24T03:51:59.543Z,82.07
2019-03-24T03:54:26.826Z,76.90
2019-03-24T03:56:54.112Z,72.97
2019-03-24T03:59:21.479Z,109.63
2019-03-24T04:01:48.727Z,84.40
2019-03-24T04:04:16.011Z,92.13
2019-03-24T04:06:43.294Z,91.07
2019-03-24T04:09:10.610Z,116.47
2019-03-24T04:11:37.900Z,79.53
2019-03-24T04:14:05.232Z,111.83
2019-03-24T04:16:32.526Z,92.90
2019-03-24T04:18:59.771Z,91.87
2019-03-24T04:21:27.058Z,135.07
2019-03-24T04:23:54.351Z,110.83
2019-03-24T04:26:21.607Z,156.50
2019-03-24T04:28:48.889Z,145.13
2019-03-24T04:31:16.148Z,120.77
2019-03-24T04:33:43.399Z,96.07
2019-03-24T04:36:10.684Z,106.80
2019-03-24T04:38:37.965Z,109.07
2019-03-24T04:41:05.226Z,120.67
2019-03-24T04:43:32.516Z,127.50
2019-03-24T04:45:59.774Z,129.50
2019-03-24T04:48:27.310Z,137.93
2019-03-24T04:50:54.597Z,127.37
2019-03-24T04:53:22.106Z,125.60
2019-03-24T04:55:49.659Z,116.10
2019-03-24T04:58:16.914Z,119.93
2019-03-24T05:00:44.479Z,118.43
2019-03-24T05:03:11.738Z,119.57
2019-03-24T05:05:39.172Z,129.53
2019-03-24T05:08:06.708Z,124.80
2019-03-24T05:10:34.077Z,103.27
2019-03-24T05:13:01.417Z,116.50
2019-03-24T05:15:28.677Z,100.50
2019-03-24T05:17:56.113Z,103.30
2019-03-24T05:20:23.441Z,107.50
2019-03-24T05:22:50.702Z,101.67
2019-03-24T05:25:17.996Z,103.20
2019-03-24T05:27:45.526Z,97.83
2019-03-24T05:30:12.777Z,97.97
2019-03-24T05:32:40.070Z,92.13
2019-03-24T05:35:07.635Z,104.60
2019-03-24T05:37:34.887Z,109.97
2019-03-24T05:40:02.242Z,113.80
2019-03-24T05:42:29.501Z,105.07
2019-03-24T05:44:56.786Z,102.70
2019-03-24T05:47:24.041Z,103.97
2019-03-24T05:49:51.327Z,95.63
2019-03-24T05:52:18.833Z,112.57
2019-03-24T05:54:46.337Z,105.03
2019-03-24T05:57:13.622Z,107.40
2019-03-24T05:59:40.878Z,100.33
2019-03-24T06:02:08.167Z,117.13
2019-03-24T06:04:35.517Z,95.87
2019-03-24T06:07:02.777Z,100.10
2019-03-24T06:09:30.309Z,93.60
2019-03-24T06:11:57.598Z,117.07
2019-03-24T06:14:24.873Z,99.50
2019-03-24T06:16:52.142Z,102.33
2019-03-24T06:19:19.430Z,121.20
2019-03-24T06:21:46.716Z,96.10
2019-03-24T06:24:14.038Z,105.13
2019-03-24T06:26:41.324Z,93.87
2019-03-24T06:29:08.572Z,100.33
2019-03-24T06:31:35.849Z,95.60
2019-03-24T06:34:03.107Z,87.90
2019-03-24T06:36:30.395Z,106.40
2019-03-24T06:38:57.642Z,97.90
2019-03-24T06:41:24.898Z,97.50
2019-03-24T06:43:52.178Z,89.93
2019-03-24T06:46:19.461Z,81.90
2019-03-24T06:48:46.740Z,89.00
2019-03-24T06:51:14.025Z,89.77
2019-03-24T06:53:41.311Z,100.83
2019-03-24T06:56:08.666Z,108.77
2019-03-24T06:58:35.946Z,99.40
2019-03-24T07:01:03.466Z,108.93
2019-03-24T07:03:32.679Z,95.38
2019-03-24T07:05:59.818Z,93.37
2019-03-24T07:08:27.109Z,90.63
2019-03-24T07:10:54.389Z,95.07
2019-03-24T07:13:21.673Z,101.63
2019-03-24T07:15:48.921Z,91.50
2019-03-24T07:18:16.213Z,88.00
2019-03-24T07:20:43.462Z,93.87
2019-03-24T07:23:10.749Z,93.23
2019-03-24T07:25:38.017Z,92.47
2019-03-24T07:28:05.297Z,81.50
2019-03-24T07:30:32.549Z,98.70
2019-03-24T07:32:59.833Z,96.40
2019-03-24T07:35:27.125Z,111.27
2019-03-24T07:37:54.422Z,91.03
2019-03-24T07:40:21.682Z,96.37
2019-03-24T07:42:49.192Z,91.97
2019-03-24T07:45:16.609Z,88.13
2019-03-24T07:47:43.899Z,98.33
2019-03-24T07:50:11.250Z,98.30
2019-03-24T07:52:38.504Z,79.27
2019-03-24T07:55:06.349Z,94.87
2019-03-24T07:57:33.602Z,93.97
2019-03-24T08:00:01.181Z,95.53
2019-03-24T08:02:28.430Z,94.60
2019-03-24T08:04:55.722Z,98.20
2019-03-24T08:07:23.092Z,101.70
2019-03-24T08:09:50.346Z,104.43
2019-03-24T08:12:17.634Z,92.13
2019-03-24T08:14:44.885Z,86.77
2019-03-24T08:17:12.159Z,99.93
2019-03-24T08:19:39.406Z,97.87
2019-03-24T08:22:06.757Z,89.37
2019-03-24T08:24:34.009Z,82.10
2019-03-24T08:27:01.295Z,85.80
2019-03-24T08:29:28.577Z,90.50
2019-03-24T08:31:55.863Z,99.60
2019-03-24T08:34:23.109Z,88.17
2019-03-24T08:36:50.664Z,88.57
2019-03-24T08:39:17.939Z,91.13
2019-03-24T08:41:45.300Z,84.37
2019-03-24T08:44:12.542Z,81.20
2019-03-24T08:46:39.826Z,88.13
2019-03-24T08:49:07.154Z,93.10
2019-03-24T08:51:34.432Z,88.43
2019-03-24T08:54:01.683Z,86.20
2019-03-24T08:56:29.051Z,81.37
2019-03-24T08:58:56.331Z,84.03
2019-03-24T09:01:23.613Z,86.90
2019-03-24T09:03:50.864Z,84.10
2019-03-24T09:06:18.147Z,79.67
2019-03-24T09:08:45.394Z,78.60
2019-03-24T09:11:12.684Z,81.03
2019-03-24T09:13:39.934Z,84.17
2019-03-24T09:16:07.222Z,81.80
2019-03-24T09:18:34.472Z,79.53
2019-03-24T09:21:01.831Z,82.73
2019-03-24T09:23:29.086Z,88.00
2019-03-24T09:25:56.367Z,86.57
2019-03-24T09:28:23.620Z,79.03
2019-03-24T09:30:50.904Z,89.00
2019-03-24T09:33:18.177Z,83.20
2019-03-24T09:35:45.502Z,80.80
2019-03-24T09:38:12.777Z,87.50
2019-03-24T09:40:40.153Z,79.00
2019-03-24T09:43:07.502Z,75.97
2019-03-24T09:45:34.781Z,76.20
2019-03-24T09:48:02.206Z,76.17
2019-03-24T09:50:29.658Z,74.57
2019-03-24T09:52:56.913Z,84.90
2019-03-24T09:55:24.170Z,76.77
2019-03-24T09:57:51.454Z,80.40
2019-03-24T10:00:18.739Z,78.07
2019-03-24T10:02:45.981Z,75.90
2019-03-24T10:05:13.434Z,75.47
2019-03-24T10:07:40.712Z,73.77
2019-03-24T10:10:08.053Z,84.93
2019-03-24T10:12:35.298Z,71.63
2019-03-24T10:15:02.650Z,75.23
2019-03-24T10:17:29.901Z,77.67
2019-03-24T10:19:57.170Z,74.13
2019-03-24T10:22:24.445Z,74.00
2019-03-24T10:24:51.726Z,76.70
2019-03-24T10:27:18.985Z,70.03
2019-03-24T10:29:46.276Z,67.67
2019-03-24T10:32:13.527Z,69.60
2019-03-24T10:34:40.831Z,66.60
2019-03-24T10:37:08.086Z,69.30
2019-03-24T10:39:35.340Z,78.90
2019-03-24T10:42:02.670Z,70.03
2019-03-24T10:44:29.989Z,66.37
2019-03-24T10:46:57.467Z,65.40
2019-03-24T10:49:25.492Z,61.83
2019-03-24T10:51:53.461Z,63.10
2019-03-24T10:54:20.828Z,60.87
2019-03-24T10:56:48.381Z,61.50
2019-03-24T10:59:15.746Z,57.93
2019-03-24T11:01:43.498Z,61.83
2019-03-24T11:04:10.997Z,61.50
2019-03-24T11:06:38.318Z,60.87
2019-03-24T11:09:06.333Z,56.73
2019-03-24T11:11:33.578Z,57.40
2019-03-24T11:14:02.477Z,62.13
2019-03-24T11:16:29.843Z,63.17
2019-03-24T11:18:57.153Z,55.07
2019-03-24T11:21:24.407Z,47.00
2019-03-24T11:23:51.771Z,47.50
2019-03-24T11:26:19.284Z,51.37
2019-03-24T11:28:46.554Z,50.93
2019-03-24T11:31:13.845Z,54.90
2019-03-24T11:33:41.106Z,49.47
2019-03-24T11:36:08.358Z,46.23
2019-03-24T11:38:35.631Z,47.13
2019-03-24T11:41:02.918Z,49.20
2019-03-24T11:43:30.269Z,44.27
2019-03-24T11:45:57.537Z,47.83
2019-03-24T11:48:24.815Z,48.40
2019-03-24T11:50:52.073Z,55.80
2019-03-24T11:53:19.347Z,54.87
2019-03-24T11:55:46.602Z,50.90
2019-03-24T11:58:13.859Z,55.57
2019-03-24T12:00:41.215Z,55.90
2019-03-24T12:03:08.575Z,50.77
2019-03-24T12:05:35.859Z,59.03
2019-03-24T12:08:03.106Z,55.27
2019-03-24T12:10:30.455Z,53.97
2019-03-24T12:12:57.735Z,50.07
2019-03-24T12:15:25.081Z,48.90
2019-03-24T12:17:52.334Z,46.57
2019-03-24T12:20:19.618Z,46.47
2019-03-24T12:22:46.876Z,48.33
2019-03-24T12:25:14.222Z,49.80
2019-03-24T12:27:41.473Z,46.60
2019-03-24T12:30:09.028Z,51.97
2019-03-24T12:32:36.281Z,48.90
2019-03-24T12:35:05.138Z,44.27
2019-03-24T12:37:32.654Z,46.10
2019-03-24T12:39:59.898Z,47.90
2019-03-24T12:42:27.445Z,46.90
2019-03-24T12:44:54.726Z,48.07
2019-03-24T12:47:21.996Z,43.17
2019-03-24T12:49:49.323Z,50.97
2019-03-24T12:52:16.603Z,51.73
2019-03-24T12:54:43.853Z,47.20
2019-03-24T12:57:11.136Z,43.60
2019-03-24T12:59:38.410Z,50.13
2019-03-24T13:02:05.666Z,45.43
2019-03-24T13:04:32.949Z,49.67
2019-03-24T13:07:00.205Z,49.20
2019-03-24T13:09:27.485Z,45.73
2019-03-24T13:11:54.776Z,45.97
2019-03-24T13:14:22.025Z,44.50
2019-03-24T13:16:49.278Z,43.47
2019-03-24T13:19:16.546Z,45.60
2019-03-24T13:21:43.823Z,40.93
2019-03-24T13:24:11.098Z,48.07
2019-03-24T13:26:38.637Z,44.70
2019-03-24T13:29:05.893Z,43.40
2019-03-24T13:31:33.169Z,48.47
2019-03-24T13:34:00.685Z,39.83
2019-03-24T13:36:27.968Z,42.93
2019-03-24T13:38:55.217Z,49.30
2019-03-24T13:41:22.762Z,42.07
2019-03-24T13:43:50.018Z,42.03
2019-03-24T13:46:17.306Z,42.03
2019-03-24T13:48:44.815Z,38.43
2019-03-24T13:51:12.062Z,40.30
2019-03-24T13:53:39.347Z,48.60
2019-03-24T13:56:06.967Z,41.37
2019-03-24T13:58:34.234Z,38.07
2019-03-24T14:01:01.602Z,37.77
2019-03-24T14:03:28.850Z,39.27
2019-03-24T14:05:56.129Z,37.83
2019-03-24T14:08:23.421Z,42.00
2019-03-24T14:10:50.930Z,42.17
2019-03-24T14:13:18.477Z,37.50
2019-03-24T14:15:45.746Z,41.07
2019-03-24T14:18:13.147Z,39.80
2019-03-24T14:20:43.585Z,40.70
2019-03-24T14:23:09.818Z,41.30
2019-03-24T14:25:37.070Z,40.67
2019-03-24T14:28:04.347Z,42.13
2019-03-24T14:30:38.951Z,40.97
2019-03-24T14:33:06.197Z,41.80
2019-03-24T14:35:33.482Z,47.73
2019-03-24T14:38:00.732Z,36.83
2019-03-24T14:40:28.002Z,37.47
2019-03-24T14:42:55.285Z,35.23
2019-03-24T14:45:23.425Z,36.47
2019-03-24T14:47:50.749Z,35.97
2019-03-24T14:50:18.107Z,36.60
2019-03-24T14:52:45.378Z,38.43
2019-03-24T14:55:12.670Z,34.57
2019-03-24T14:57:40.201Z,31.60
2019-03-24T15:00:08.126Z,29.17
2019-03-24T15:02:35.405Z,31.80
2019-03-24T15:05:02.689Z,25.97
2019-03-24T15:07:29.944Z,31.73
2019-03-24T15:09:57.221Z,26.37
2019-03-24T15:12:24.781Z,26.67
2019-03-24T15:14:52.053Z,26.17
2019-03-24T15:17:19.315Z,27.20
2019-03-24T15:19:46.648Z,30.67
2019-03-24T15:22:13.918Z,28.70
2019-03-24T15:24:41.238Z,26.90
2019-03-24T15:27:08.525Z,27.60
2019-03-24T15:29:35.798Z,29.90
2019-03-24T15:32:03.075Z,25.83
2019-03-24T15:34:30.356Z,29.00
2019-03-24T15:36:57.634Z,28.20
2019-03-24T15:39:24.926Z,24.43
2019-03-24T15:41:52.174Z,27.70
2019-03-24T15:44:19.430Z,26.50
2019-03-24T15:46:46.718Z,24.27
2019-03-24T15:49:13.969Z,24.70
2019-03-24T15:51:41.257Z,25.70
2019-03-24T15:54:08.531Z,25.53
2019-03-24T15:56:35.794Z,22.93
2019-03-24T15:59:03.143Z,24.70
2019-03-24T16:01:30.574Z,24.30
2019-03-24T16:03:58.269Z,24.20
2019-03-24T16:06:25.695Z,23.27
2019-03-24T16:08:53.234Z,21.87
2019-03-24T16:11:20.783Z,22.23
2019-03-24T16:13:48.066Z,23.27
2019-03-24T16:16:15.343Z,24.27
2019-03-24T16:18:42.961Z,22.17
2019-03-24T16:21:10.313Z,22.37
2019-03-24T16:23:37.591Z,31.63
2019-03-24T16:26:04.866Z,23.90
2019-03-24T16:28:32.126Z,24.17
2019-03-24T16:30:59.662Z,25.87
2019-03-24T16:33:26.941Z,23.07
2019-03-24T16:35:54.222Z,25.80
2019-03-24T16:38:21.473Z,23.83
2019-03-24T16:40:48.768Z,28.00
2019-03-24T16:43:16.021Z,23.60
2019-03-24T16:45:43.270Z,28.80
2019-03-24T16:48:10.559Z,28.90
2019-03-24T16:50:37.852Z,25.87
2019-03-24T16:53:05.097Z,20.63
2019-03-24T16:55:32.354Z,26.60
2019-03-24T16:57:59.640Z,27.40
2019-03-24T17:00:26.894Z,24.73
2019-03-24T17:02:54.259Z,26.67
2019-03-24T17:05:21.509Z,28.00
2019-03-24T17:07:48.755Z,26.50
2019-03-24T17:10:16.041Z,24.10
2019-03-24T17:12:43.285Z,26.10
2019-03-24T17:15:10.639Z,25.67
2019-03-24T17:17:37.887Z,33.53
2019-03-24T17:20:06.650Z,27.60
2019-03-24T17:22:33.902Z,23.00
2019-03-24T17:25:01.177Z,26.00
2019-03-24T17:27:28.453Z,28.00
2019-03-24T17:29:55.738Z,33.83
2019-03-24T17:32:23.068Z,26.47
2019-03-24T17:34:50.596Z,30.80
2019-03-24T17:37:17.846Z,28.30
2019-03-24T17:39:45.485Z,31.03
2019-03-24T17:42:12.809Z,25.83
2019-03-24T17:44:40.072Z,33.00
2019-03-24T17:47:07.825Z,25.00
2019-03-24T17:49:35.135Z,31.77
2019-03-24T17:52:02.393Z,29.93
2019-03-24T17:54:29.665Z,29.67
2019-03-24T17:56:56.938Z,30.63
2019-03-24T17:59:24.298Z,31.03
2019-03-24T18:01:52.833Z,28.47
2019-03-24T18:04:24.591Z,23.57
2019-03-24T18:06:50.205Z,25.33
2019-03-24T18:09:17.489Z,27.83
2019-03-24T18:11:44.742Z,20.17
2019-03-24T18:14:12.073Z,22.10
2019-03-24T18:16:39.433Z,17.93
2019-03-24T18:19:07.032Z,22.90
2019-03-24T18:21:34.287Z,20.57
2019-03-24T18:24:01.563Z,18.93
2019-03-24T18:26:29.070Z,19.47
2019-03-24T18:28:56.348Z,20.67
2019-03-24T18:31:23.601Z,18.23
2019-03-24T18:33:50.881Z,17.77
2019-03-24T18:36:18.415Z,21.70
2019-03-24T18:38:45.674Z,17.20
2019-03-24T18:41:12.949Z,25.90
2019-03-24T18:43:40.201Z,17.60
2019-03-24T18:46:07.491Z,20.00
2019-03-24T18:48:34.737Z,16.73
2019-03-24T18:51:02.050Z,16.70
2019-03-24T18:53:29.379Z,15.90
2019-03-24T18:55:56.633Z,18.17
2019-03-24T18:58:23.926Z,16.60
2019-03-24T19:00:51.186Z,15.37
2019-03-24T19:03:18.492Z,14.20
2019-03-24T19:05:45.837Z,14.20
2019-03-24T19:08:13.085Z,15.10
2019-03-24T19:10:40.370Z,15.20
2019-03-24T19:13:07.613Z,17.90
2019-03-24T19:15:37.300Z,17.30
2019-03-24T19:18:04.130Z,13.63
2019-03-24T19:20:31.411Z,11.83
2019-03-24T19:22:58.744Z,16.73
2019-03-24T19:25:26.125Z,10.70
2019-03-24T19:27:53.378Z,11.70
2019-03-24T19:30:22.211Z,11.10
2019-03-24T19:32:49.521Z,11.77
2019-03-24T19:35:16.770Z,14.03
2019-03-24T19:37:45.722Z,10.33
2019-03-24T19:40:14.506Z,10.23
2019-03-24T19:42:41.782Z,18.43
2019-03-24T19:45:09.103Z,15.87
2019-03-24T19:47:36.386Z,12.60
2019-03-24T19:50:04.836Z,9.80
2019-03-24T19:52:32.144Z,9.90
2019-03-24T19:54:59.423Z,12.13
2019-03-24T19:57:26.778Z,10.60
2019-03-24T19:59:54.175Z,12.60
2019-03-24T20:02:21.586Z,10.60
2019-03-24T20:04:49.007Z,8.37
2019-03-24T20:07:16.420Z,12.10
2019-03-24T20:09:44.055Z,11.33
2019-03-24T20:12:11.441Z,11.23
2019-03-24T20:14:39.214Z,10.27
2019-03-24T20:17:06.575Z,11.27
2019-03-24T20:19:33.822Z,10.53
2019-03-24T20:22:01.398Z,11.57
2019-03-24T20:24:28.643Z,14.03
2019-03-24T20:26:55.918Z,11.13
2019-03-24T20:29:23.189Z,5.87
2019-03-24T20:31:50.433Z,14.30
2019-03-24T20:34:17.712Z,11.27
2019-03-24T20:36:44.995Z,12.50
2019-03-24T20:39:12.237Z,11.33
2019-03-24T20:41:39.499Z,10.13
2019-03-24T20:44:07.030Z,10.90
2019-03-24T20:46:34.305Z,11.87
2019-03-24T20:49:01.574Z,8.97
2019-03-24T20:51:28.936Z,11.00
2019-03-24T20:53:56.198Z,11.13
2019-03-24T20:56:23.457Z,9.17
2019-03-24T20:58:51.172Z,8.13
2019-03-24T21:01:18.871Z,14.90
2019-03-24T21:03:46.250Z,12.63
2019-03-24T21:06:13.766Z,10.07
2019-03-24T21:08:41.005Z,14.07
2019-03-24T21:11:08.647Z,14.63
2019-03-24T21:13:35.889Z,6.60
2019-03-24T21:16:03.274Z,8.70
2019-03-24T21:18:30.554Z,9.80
2019-03-24T21:20:57.794Z,8.70
2019-03-24T21:23:29.558Z,12.00
2019-03-24T21:25:54.033Z,10.80
2019-03-24T21:28:21.578Z,10.37
2019-03-24T21:30:48.863Z,8.50
2019-03-24T21:33:16.102Z,13.97
2019-03-24T21:35:43.370Z,16.13
2019-03-24T21:38:10.714Z,9.83
2019-03-24T21:40:37.996Z,12.10
2019-03-24T21:43:06.597Z,10.50
2019-03-24T21:45:34.120Z,10.73
2019-03-24T21:48:01.401Z,7.40
2019-03-24T21:50:28.650Z,9.37
2019-03-24T21:52:55.888Z,6.37
2019-03-24T21:55:23.166Z,11.93
2019-03-24T21:57:57.484Z,7.83
2019-03-24T22:00:21.017Z,6.10
2019-03-24T22:02:48.294Z,8.73
2019-03-24T22:05:15.569Z,13.03
2019-03-24T22:07:42.837Z,6.80
2019-03-24T22:10:10.272Z,4.70
2019-03-24T22:12:37.513Z,7.83
2019-03-24T22:15:06.341Z,8.30
2019-03-24T22:17:33.597Z,8.30
2019-03-24T22:20:01.166Z,6.30
2019-03-24T22:22:28.415Z,10.33
2019-03-24T22:24:55.689Z,14.40
2019-03-24T22:27:22.965Z,10.20
2019-03-24T22:29:50.217Z,8.30
2019-03-24T22:32:17.756Z,6.87
2019-03-24T22:34:45.001Z,10.87
2019-03-24T22:37:16.085Z,6.37
2019-03-24T22:39:41.529Z,9.13
2019-03-24T22:42:08.799Z,8.47
2019-03-24T22:44:36.078Z,10.53
2019-03-24T22:47:03.358Z,14.43
2019-03-24T22:49:30.877Z,7.90
2019-03-24T22:52:06.764Z,10.27
2019-03-24T22:54:27.113Z,8.23
2019-03-24T22:56:54.683Z,15.03
2019-03-24T22:59:21.983Z,5.43
2019-03-24T23:01:49.260Z,9.03
2019-03-24T23:04:16.502Z,9.80
2019-03-24T23:06:43.778Z,9.63
2019-03-24T23:09:11.163Z,11.20
2019-03-24T23:11:38.434Z,8.93
2019-03-24T23:14:05.680Z,8.50
2019-03-24T23:16:33.215Z,8.10
2019-03-24T23:19:00.495Z,9.97
2019-03-24T23:21:27.740Z,9.03
2019-03-24T23:23:54.992Z,8.40
2019-03-24T23:26:22.262Z,8.63
2019-03-24T23:28:49.763Z,10.13
2019-03-24T23:31:17.299Z,8.53
2019-03-24T23:33:44.536Z,9.07
2019-03-24T23:36:11.806Z,6.97
2019-03-24T23:38:39.054Z,10.37
2019-03-24T23:41:06.325Z,16.03
2019-03-24T23:43:33.567Z,8.63
2019-03-24T23:46:01.354Z,11.40
2019-03-24T23:48:28.893Z,7.90
2019-03-24T23:50:56.133Z,9.40
2019-03-24T23:53:23.413Z,11.33
2019-03-24T23:55:50.655Z,8.70
2019-03-24T23:58:17.938Z,12.50
